createdAt,value
2018-08-06T00:00:11.992Z,25.81
2018-08-06T00:01:12.014Z,25.77
2018-08-06T00:02:12.026Z,25.75
2018-08-06T00:03:12.067Z,25.78
2018-08-06T00:04:12.011Z,25.81
2018-08-06T00:05:11.997Z,25.81
2018-08-06T00:06:12.053Z,25.81
2018-08-06T00:07:12.016Z,25.84
2018-08-06T00:08:12.014Z,25.82
2018-08-06T00:09:12.075Z,25.74
2018-08-06T00:10:11.965Z,25.77
2018-08-06T00:11:12.120Z,25.77
2018-08-06T00:12:12.005Z,25.77
2018-08-06T00:13:11.949Z,25.77
2018-08-06T00:14:12.022Z,25.77
2018-08-06T00:15:11.977Z,25.82
2018-08-06T00:16:12.008Z,25.84
2018-08-06T00:17:12.021Z,25.82
2018-08-06T00:18:11.983Z,25.82
2018-08-06T00:19:12.015Z,25.84
2018-08-06T00:20:12.076Z,25.84
2018-08-06T00:21:11.949Z,25.84
2018-08-06T00:22:12.124Z,25.81
2018-08-06T00:23:11.954Z,25.82
2018-08-06T00:24:11.973Z,25.84
2018-08-06T00:25:11.937Z,25.81
2018-08-06T00:26:11.961Z,25.81
2018-08-06T00:27:11.990Z,25.81
2018-08-06T00:28:12.052Z,25.8
2018-08-06T00:29:11.994Z,25.8
2018-08-06T00:30:12.110Z,25.81
2018-08-06T00:31:12.008Z,25.81
2018-08-06T00:32:11.985Z,25.82
2018-08-06T00:33:11.946Z,25.8
2018-08-06T00:34:11.936Z,25.81
2018-08-06T00:35:11.989Z,25.81
2018-08-06T00:36:11.943Z,25.8
2018-08-06T00:37:11.949Z,25.81
2018-08-06T00:38:11.955Z,25.8
2018-08-06T00:39:11.916Z,25.81
2018-08-06T00:40:11.925Z,25.81
2018-08-06T00:41:12.068Z,25.81
2018-08-06T00:42:11.922Z,25.8
2018-08-06T00:43:11.958Z,25.81
2018-08-06T00:44:11.941Z,25.77
2018-08-06T00:45:11.937Z,25.8
2018-08-06T00:46:11.935Z,25.61
2018-08-06T00:47:11.923Z,25.64
2018-08-06T00:48:11.927Z,25.64
2018-08-06T00:49:11.926Z,25.6
2018-08-06T00:50:11.944Z,25.61
2018-08-06T00:51:11.898Z,25.6
2018-08-06T00:52:11.957Z,25.58
2018-08-06T00:53:11.917Z,25.6
2018-08-06T00:54:11.921Z,25.61
2018-08-06T00:55:12.056Z,25.6
2018-08-06T00:56:12.122Z,25.61
2018-08-06T00:57:11.927Z,25.57
2018-08-06T00:58:11.982Z,25.6
2018-08-06T00:59:11.907Z,25.54
2018-08-06T01:00:11.934Z,25.44
2018-08-06T01:01:11.925Z,25.44
2018-08-06T01:02:12.012Z,25.32
2018-08-06T01:03:12.074Z,25.19
2018-08-06T01:04:12.128Z,25.2
2018-08-06T01:05:11.931Z,25.2
2018-08-06T01:06:11.939Z,25.08
2018-08-06T01:07:12.028Z,24.86
2018-08-06T01:08:11.981Z,24.83
2018-08-06T01:09:12.027Z,24.89
2018-08-06T01:10:12.075Z,24.91
2018-08-06T01:11:11.906Z,24.97
2018-08-06T01:12:11.976Z,24.97
2018-08-06T01:13:12.007Z,24.97
2018-08-06T01:14:11.982Z,24.94
2018-08-06T01:15:12.019Z,24.79
2018-08-06T01:16:11.979Z,24.81
2018-08-06T01:17:12.015Z,24.86
2018-08-06T01:18:11.995Z,24.89
2018-08-06T01:19:12.025Z,24.92
2018-08-06T01:20:11.972Z,24.95
2018-08-06T01:21:11.932Z,24.98
2018-08-06T01:22:11.963Z,25.02
2018-08-06T01:23:11.973Z,24.99
2018-08-06T01:24:11.933Z,25.03
2018-08-06T01:25:11.958Z,25.02
2018-08-06T01:26:11.947Z,25.03
2018-08-06T01:27:11.986Z,25.01
2018-08-06T01:28:12.123Z,24.98
2018-08-06T01:29:11.951Z,24.99
2018-08-06T01:30:11.913Z,24.97
2018-08-06T01:31:12.004Z,24.97
2018-08-06T01:32:11.956Z,24.94
2018-08-06T01:33:12.047Z,24.94
2018-08-06T01:34:12.006Z,24.92
2018-08-06T01:35:11.965Z,24.94
2018-08-06T01:36:11.909Z,24.94
2018-08-06T01:37:11.998Z,24.97
2018-08-06T01:38:12.082Z,24.95
2018-08-06T01:39:12.002Z,24.95
2018-08-06T01:40:11.988Z,24.94
2018-08-06T01:41:12.079Z,24.94
2018-08-06T01:42:12.009Z,24.94
2018-08-06T01:43:12.056Z,24.95
2018-08-06T01:44:11.919Z,24.97
2018-08-06T01:45:11.998Z,24.97
2018-08-06T01:46:12.023Z,24.97
2018-08-06T01:47:12.009Z,24.97
2018-08-06T01:48:12.077Z,24.97
2018-08-06T01:49:11.955Z,24.75
2018-08-06T01:50:11.926Z,24.81
2018-08-06T01:51:11.896Z,24.85
2018-08-06T01:52:11.903Z,24.82
2018-08-06T01:53:11.909Z,24.82
2018-08-06T01:54:11.921Z,24.82
2018-08-06T01:55:11.938Z,24.82
2018-08-06T01:56:11.930Z,24.6
2018-08-06T01:57:11.951Z,24.63
2018-08-06T01:58:11.910Z,24.65
2018-08-06T01:59:11.910Z,24.61
2018-08-06T02:00:11.891Z,24.57
2018-08-06T02:01:11.951Z,24.47
2018-08-06T02:02:11.918Z,24.48
2018-08-06T02:03:11.906Z,24.47
2018-08-06T02:04:11.880Z,24.46
2018-08-06T02:05:11.888Z,24.43
2018-08-06T02:06:11.931Z,24.4
2018-08-06T02:07:11.916Z,24.4
2018-08-06T02:08:11.952Z,24.4
2018-08-06T02:09:11.931Z,24.32
2018-08-06T02:10:11.949Z,24.32
2018-08-06T02:11:11.945Z,24.27
2018-08-06T02:12:11.930Z,24.23
2018-08-06T02:13:11.978Z,24.15
2018-08-06T02:14:12.004Z,24.13
2018-08-06T02:15:12.056Z,24.13
2018-08-06T02:16:11.967Z,23.98
2018-08-06T02:17:11.895Z,23.95
2018-08-06T02:18:12.043Z,23.98
2018-08-06T02:19:11.999Z,23.96
2018-08-06T02:20:11.980Z,23.98
2018-08-06T02:21:12.085Z,23.96
2018-08-06T02:22:11.956Z,23.92
2018-08-06T02:23:11.890Z,23.93
2018-08-06T02:24:11.947Z,23.95
2018-08-06T02:25:11.980Z,23.99
2018-08-06T02:26:11.901Z,23.89
2018-08-06T02:27:12.017Z,23.88
2018-08-06T02:28:11.904Z,23.88
2018-08-06T02:29:11.941Z,23.88
2018-08-06T02:30:11.938Z,23.81
2018-08-06T02:31:11.956Z,23.73
2018-08-06T02:32:12.129Z,23.75
2018-08-06T02:33:12.072Z,23.78
2018-08-06T02:34:11.979Z,23.77
2018-08-06T02:35:11.986Z,23.65
2018-08-06T02:36:11.991Z,23.65
2018-08-06T02:37:11.980Z,23.67
2018-08-06T02:38:11.902Z,23.68
2018-08-06T02:39:12.014Z,23.64
2018-08-06T02:40:12.026Z,23.68
2018-08-06T02:41:12.111Z,23.71
2018-08-06T02:42:11.974Z,23.68
2018-08-06T02:43:12.054Z,23.64
2018-08-06T02:44:12.011Z,23.61
2018-08-06T02:45:12.009Z,23.61
2018-08-06T02:46:12.041Z,23.62
2018-08-06T02:47:11.947Z,23.62
2018-08-06T02:48:11.965Z,23.64
2018-08-06T02:49:11.923Z,23.54
2018-08-06T02:50:11.995Z,23.57
2018-08-06T02:51:11.946Z,23.58
2018-08-06T02:52:11.938Z,23.62
2018-08-06T02:53:12.065Z,23.6
2018-08-06T02:54:11.999Z,23.48
2018-08-06T02:55:11.920Z,23.51
2018-08-06T02:56:11.875Z,23.5
2018-08-06T02:57:11.896Z,23.51
2018-08-06T02:58:11.949Z,23.43
2018-08-06T02:59:11.941Z,23.41
2018-08-06T03:00:12.124Z,23.4
2018-08-06T03:01:11.992Z,23.41
2018-08-06T03:02:12.019Z,23.39
2018-08-06T03:03:11.908Z,23.27
2018-08-06T03:04:11.893Z,23.22
2018-08-06T03:05:11.901Z,23.2
2018-08-06T03:06:12.254Z,23.25
2018-08-06T03:07:11.917Z,23.13
2018-08-06T03:08:11.935Z,23.16
2018-08-06T03:09:11.898Z,23.16
2018-08-06T03:10:11.916Z,23.18
2018-08-06T03:11:11.938Z,23.2
2018-08-06T03:12:11.899Z,23.23
2018-08-06T03:13:11.902Z,23.23
2018-08-06T03:14:11.905Z,23.23
2018-08-06T03:15:11.901Z,23.26
2018-08-06T03:16:11.897Z,23.11
2018-08-06T03:17:11.919Z,23.16
2018-08-06T03:18:11.909Z,23.16
2018-08-06T03:19:11.933Z,23.22
2018-08-06T03:20:11.879Z,23.19
2018-08-06T03:21:11.886Z,23.02
2018-08-06T03:22:11.893Z,22.91
2018-08-06T03:23:11.929Z,22.96
2018-08-06T03:24:11.874Z,23.01
2018-08-06T03:25:11.888Z,23.06
2018-08-06T03:26:11.983Z,23.03
2018-08-06T03:27:12.024Z,23.03
2018-08-06T03:28:11.896Z,23.03
2018-08-06T03:29:11.933Z,23.07
2018-08-06T03:30:11.890Z,23.07
2018-08-06T03:31:11.985Z,23.07
2018-08-06T03:32:11.879Z,23.07
2018-08-06T03:33:11.878Z,23.06
2018-08-06T03:34:12.041Z,23.05
2018-08-06T03:35:12.066Z,23.06
2018-08-06T03:36:11.881Z,23.06
2018-08-06T03:37:11.910Z,23.03
2018-08-06T03:38:11.882Z,22.98
2018-08-06T03:39:12.135Z,22.96
2018-08-06T03:40:12.346Z,22.94
2018-08-06T03:41:11.990Z,22.92
2018-08-06T03:42:11.981Z,22.91
2018-08-06T03:43:12.385Z,22.89
2018-08-06T03:44:12.036Z,22.91
2018-08-06T03:45:11.898Z,22.91
2018-08-06T03:46:11.893Z,22.89
2018-08-06T03:47:11.914Z,22.89
2018-08-06T03:48:12.032Z,22.72
2018-08-06T03:49:11.892Z,22.75
2018-08-06T03:50:46.731Z,22.76
2018-08-06T03:51:12.025Z,22.79
2018-08-06T03:52:11.860Z,22.82
2018-08-06T03:53:12.091Z,22.84
2018-08-06T03:54:11.941Z,22.86
2018-08-06T03:55:11.961Z,22.76
2018-08-06T03:56:11.906Z,22.79
2018-08-06T03:57:11.885Z,22.79
2018-08-06T03:58:19.477Z,22.74
2018-08-06T03:59:12.031Z,22.72
2018-08-06T04:00:11.936Z,22.74
2018-08-06T04:01:11.988Z,22.74
2018-08-06T04:02:12.179Z,22.71
2018-08-06T04:03:11.960Z,22.7
2018-08-06T04:04:12.035Z,22.65
2018-08-06T04:05:12.081Z,22.61
2018-08-06T04:06:11.920Z,22.61
2018-08-06T04:07:12.031Z,22.61
2018-08-06T04:08:11.964Z,22.6
2018-08-06T04:09:11.966Z,22.67
2018-08-06T04:10:11.900Z,22.68
2018-08-06T04:11:11.895Z,22.72
2018-08-06T04:12:11.942Z,22.72
2018-08-06T04:13:11.942Z,22.74
2018-08-06T04:14:11.928Z,22.74
2018-08-06T04:15:11.961Z,22.76
2018-08-06T04:16:11.983Z,22.78
2018-08-06T04:17:12.072Z,22.78
2018-08-06T04:18:11.999Z,22.79
2018-08-06T04:19:11.933Z,22.78
2018-08-06T04:20:11.990Z,22.82
2018-08-06T04:21:12.025Z,22.82
2018-08-06T04:22:11.929Z,22.85
2018-08-06T04:23:11.997Z,22.85
2018-08-06T04:24:11.924Z,22.88
2018-08-06T04:25:11.958Z,22.91
2018-08-06T04:26:11.959Z,22.92
2018-08-06T04:27:11.906Z,22.96
2018-08-06T04:28:11.906Z,22.95
2018-08-06T04:29:11.930Z,22.98
2018-08-06T04:30:11.929Z,23.01
2018-08-06T04:31:11.935Z,23.03
2018-08-06T04:32:11.947Z,23.02
2018-08-06T04:33:12.180Z,23.03
2018-08-06T04:34:11.954Z,23.03
2018-08-06T04:35:11.985Z,23.02
2018-08-06T04:36:12.032Z,23.02
2018-08-06T04:37:12.067Z,23.03
2018-08-06T04:38:11.931Z,23.05
2018-08-06T04:39:12.000Z,23.11
2018-08-06T04:40:12.123Z,23.15
2018-08-06T04:41:11.939Z,23.15
2018-08-06T04:42:12.133Z,23.2
2018-08-06T04:43:12.027Z,23.19
2018-08-06T04:44:12.043Z,23.2
2018-08-06T04:45:11.995Z,23.22
2018-08-06T04:46:11.965Z,23.26
2018-08-06T04:47:12.062Z,23.27
2018-08-06T04:48:12.047Z,23.26
2018-08-06T04:49:11.965Z,23.27
2018-08-06T04:50:11.963Z,23.26
2018-08-06T04:51:12.020Z,23.29
2018-08-06T04:52:12.027Z,23.32
2018-08-06T04:53:12.033Z,23.34
2018-08-06T04:54:11.948Z,23.41
2018-08-06T04:55:11.975Z,23.4
2018-08-06T04:56:12.000Z,23.41
2018-08-06T04:57:11.996Z,23.39
2018-08-06T04:58:12.008Z,23.37
2018-08-06T04:59:12.047Z,23.39
2018-08-06T05:00:12.092Z,23.43
2018-08-06T05:01:11.979Z,23.36
2018-08-06T05:02:11.940Z,23.37
2018-08-06T05:03:11.949Z,23.4
2018-08-06T05:04:12.103Z,23.37
2018-08-06T05:05:11.989Z,23.34
2018-08-06T05:06:11.962Z,23.4
2018-08-06T05:07:11.977Z,23.41
2018-08-06T05:08:11.980Z,23.44
2018-08-06T05:09:12.000Z,23.39
2018-08-06T05:10:12.033Z,23.41
2018-08-06T05:11:12.028Z,23.43
2018-08-06T05:12:11.946Z,23.44
2018-08-06T05:13:12.033Z,23.5
2018-08-06T05:14:12.016Z,23.46
2018-08-06T05:15:11.991Z,23.48
2018-08-06T05:16:12.125Z,23.51
2018-08-06T05:17:12.297Z,23.53
2018-08-06T05:18:11.975Z,23.54
2018-08-06T05:19:12.009Z,23.57
2018-08-06T05:20:12.006Z,23.58
2018-08-06T05:21:11.989Z,23.54
2018-08-06T05:22:11.963Z,23.58
2018-08-06T05:23:12.131Z,23.58
2018-08-06T05:24:12.049Z,23.61
2018-08-06T05:25:12.042Z,23.64
2018-08-06T05:26:12.007Z,23.64
2018-08-06T05:27:12.021Z,23.67
2018-08-06T05:28:12.006Z,23.69
2018-08-06T05:29:12.071Z,23.74
2018-08-06T05:30:12.026Z,23.73
2018-08-06T05:31:12.129Z,23.65
2018-08-06T05:32:12.046Z,23.67
2018-08-06T05:33:12.012Z,23.69
2018-08-06T05:34:11.995Z,23.68
2018-08-06T05:35:12.005Z,23.71
2018-08-06T05:36:12.045Z,23.74
2018-08-06T05:37:12.009Z,23.75
2018-08-06T05:38:12.103Z,23.78
2018-08-06T05:39:12.054Z,23.75
2018-08-06T05:40:12.143Z,23.77
2018-08-06T05:41:12.107Z,23.78
2018-08-06T05:42:12.014Z,23.8
2018-08-06T05:43:12.017Z,23.78
2018-08-06T05:44:12.271Z,23.78
2018-08-06T05:45:12.065Z,23.8
2018-08-06T05:46:12.034Z,23.84
2018-08-06T05:47:12.075Z,23.85
2018-08-06T05:48:12.178Z,23.84
2018-08-06T05:49:12.181Z,23.81
2018-08-06T05:50:12.058Z,23.78
2018-08-06T05:51:12.027Z,23.77
2018-08-06T05:52:12.085Z,23.77
2018-08-06T05:53:12.066Z,23.8
2018-08-06T05:54:12.057Z,23.81
2018-08-06T05:55:12.094Z,23.8
2018-08-06T05:56:12.044Z,23.85
2018-08-06T05:57:12.075Z,23.82
2018-08-06T05:58:12.159Z,23.87
2018-08-06T05:59:12.214Z,23.85
2018-08-06T06:00:12.028Z,23.88
2018-08-06T06:01:12.226Z,23.91
2018-08-06T06:02:13.806Z,23.96
2018-08-06T06:03:12.262Z,23.92
2018-08-06T06:04:12.117Z,23.91
2018-08-06T06:05:12.830Z,23.85
2018-08-06T06:06:12.827Z,23.87
2018-08-06T06:07:12.986Z,23.91
2018-08-06T06:08:12.293Z,23.95
2018-08-06T06:09:12.046Z,23.98
2018-08-06T06:10:12.053Z,23.98
2018-08-06T06:11:12.142Z,23.98
2018-08-06T06:12:12.114Z,23.99
2018-08-06T06:13:12.063Z,24.01
2018-08-06T06:14:12.080Z,24.03
2018-08-06T06:15:12.077Z,24.05
2018-08-06T06:16:17.040Z,24.05
2018-08-06T06:17:12.334Z,24.01
2018-08-06T06:18:12.072Z,24.08
2018-08-06T06:19:12.237Z,24.1
2018-08-06T06:20:12.063Z,24.12
2018-08-06T06:21:14.694Z,24.13
2018-08-06T06:22:12.043Z,24.19
2018-08-06T06:23:12.243Z,24.26
2018-08-06T06:24:12.083Z,24.29
2018-08-06T06:25:12.141Z,24.32
2018-08-06T06:26:12.097Z,24.33
2018-08-06T06:27:12.234Z,24.36
2018-08-06T06:28:12.228Z,24.35
2018-08-06T06:29:12.093Z,24.35
2018-08-06T06:30:12.065Z,24.35
2018-08-06T06:31:12.115Z,24.36
2018-08-06T06:32:12.240Z,24.39
2018-08-06T06:33:12.113Z,24.39
2018-08-06T06:34:12.245Z,24.42
2018-08-06T06:35:12.126Z,24.46
2018-08-06T06:36:12.123Z,24.47
2018-08-06T06:37:12.135Z,24.51
2018-08-06T06:38:12.112Z,24.48
2018-08-06T06:39:12.137Z,24.48
2018-08-06T06:40:12.102Z,24.46
2018-08-06T06:41:12.305Z,24.51
2018-08-06T06:42:12.090Z,24.54
2018-08-06T06:43:12.258Z,24.51
2018-08-06T06:44:12.093Z,24.53
2018-08-06T06:45:12.141Z,24.46
2018-08-06T06:46:12.122Z,24.51
2018-08-06T06:47:12.166Z,24.6
2018-08-06T06:48:12.132Z,24.63
2018-08-06T06:49:12.366Z,24.65
2018-08-06T06:50:12.130Z,24.7
2018-08-06T06:51:12.202Z,24.71
2018-08-06T06:52:12.137Z,24.77
2018-08-06T06:53:12.120Z,24.75
2018-08-06T06:54:12.113Z,24.71
2018-08-06T06:55:12.110Z,24.7
2018-08-06T06:56:12.141Z,24.78
2018-08-06T06:57:12.145Z,24.82
2018-08-06T06:58:12.153Z,24.86
2018-08-06T06:59:12.137Z,24.91
2018-08-06T07:00:12.189Z,24.91
2018-08-06T07:01:12.129Z,24.97
2018-08-06T07:02:12.119Z,24.99
2018-08-06T07:03:12.116Z,25.02
2018-08-06T07:04:12.119Z,25.06
2018-08-06T07:05:12.139Z,25.1
2018-08-06T07:06:12.130Z,25.09
2018-08-06T07:07:12.166Z,25.15
2018-08-06T07:08:12.132Z,25.16
2018-08-06T07:09:12.228Z,25.17
2018-08-06T07:10:12.185Z,25.16
2018-08-06T07:11:12.199Z,25.19
2018-08-06T07:12:12.151Z,25.2
2018-08-06T07:13:12.143Z,25.23
2018-08-06T07:14:12.298Z,25.25
2018-08-06T07:15:12.202Z,25.26
2018-08-06T07:16:12.220Z,25.29
2018-08-06T07:17:12.145Z,25.33
2018-08-06T07:18:12.281Z,25.33
2018-08-06T07:19:12.373Z,25.36
2018-08-06T07:20:12.307Z,25.37
2018-08-06T07:21:12.157Z,25.43
2018-08-06T07:22:12.170Z,25.46
2018-08-06T07:23:12.360Z,25.53
2018-08-06T07:24:12.146Z,25.6
2018-08-06T07:25:12.129Z,25.63
2018-08-06T07:26:12.168Z,25.7
2018-08-06T07:27:12.154Z,25.72
2018-08-06T07:28:12.154Z,25.72
2018-08-06T07:29:12.237Z,25.72
2018-08-06T07:30:12.197Z,25.78
2018-08-06T07:31:12.175Z,25.75
2018-08-06T07:32:12.194Z,25.8
2018-08-06T07:33:12.227Z,25.81
2018-08-06T07:34:12.401Z,25.81
2018-08-06T07:35:12.130Z,25.88
2018-08-06T07:36:12.285Z,25.91
2018-08-06T07:37:12.228Z,25.96
2018-08-06T07:38:12.162Z,26
2018-08-06T07:39:12.153Z,25.99
2018-08-06T07:40:12.442Z,26.03
2018-08-06T07:41:12.262Z,26.05
2018-08-06T07:42:12.352Z,26.1
2018-08-06T07:43:12.397Z,26.12
2018-08-06T07:44:12.151Z,26.1
2018-08-06T07:45:12.187Z,26.15
2018-08-06T07:46:12.437Z,26.17
2018-08-06T07:47:12.220Z,26.22
2018-08-06T07:48:12.200Z,26.22
2018-08-06T07:49:12.238Z,26.23
2018-08-06T07:50:12.305Z,26.23
2018-08-06T07:51:12.147Z,26.22
2018-08-06T07:52:12.171Z,26.23
2018-08-06T07:53:12.208Z,26.26
2018-08-06T07:54:12.385Z,26.23
2018-08-06T07:55:12.201Z,26.26
2018-08-06T07:56:12.174Z,26.26
2018-08-06T07:57:12.215Z,26.27
2018-08-06T07:58:12.285Z,26.29
2018-08-06T07:59:12.443Z,26.32
2018-08-06T08:00:12.178Z,26.37
2018-08-06T08:01:12.158Z,26.42
2018-08-06T08:02:12.188Z,26.44
2018-08-06T08:03:12.178Z,26.47
2018-08-06T08:04:12.251Z,26.51
2018-08-06T08:05:12.198Z,26.53
2018-08-06T08:06:12.216Z,26.53
2018-08-06T08:07:12.188Z,26.53
2018-08-06T08:08:12.187Z,26.6
2018-08-06T08:09:12.205Z,26.6
2018-08-06T08:10:12.197Z,26.64
2018-08-06T08:11:12.215Z,26.64
2018-08-06T08:12:12.214Z,26.54
2018-08-06T08:13:12.193Z,26.57
2018-08-06T08:14:12.195Z,26.62
2018-08-06T08:15:12.194Z,26.62
2018-08-06T08:16:12.234Z,26.64
2018-08-06T08:17:12.211Z,26.65
2018-08-06T08:18:12.204Z,26.67
2018-08-06T08:19:12.196Z,26.7
2018-08-06T08:20:12.935Z,26.7
2018-08-06T08:21:12.252Z,26.79
2018-08-06T08:22:12.229Z,26.82
2018-08-06T08:23:12.263Z,26.88
2018-08-06T08:24:12.235Z,26.92
2018-08-06T08:25:12.224Z,26.92
2018-08-06T08:26:12.331Z,27.02
2018-08-06T08:27:12.365Z,27.02
2018-08-06T08:28:12.259Z,27.05
2018-08-06T08:29:12.334Z,27.06
2018-08-06T08:30:12.218Z,27.09
2018-08-06T08:31:12.292Z,27.1
2018-08-06T08:32:12.299Z,27.12
2018-08-06T08:33:12.265Z,27.17
2018-08-06T08:34:12.244Z,27.2
2018-08-06T08:35:12.508Z,27.24
2018-08-06T08:36:12.410Z,27.29
2018-08-06T08:37:12.264Z,27.32
2018-08-06T08:38:12.272Z,27.34
2018-08-06T08:39:12.230Z,27.43
2018-08-06T08:40:12.291Z,27.44
2018-08-06T08:41:12.268Z,27.44
2018-08-06T08:42:12.386Z,27.43
2018-08-06T08:43:13.152Z,27.41
2018-08-06T08:44:12.245Z,27.39
2018-08-06T08:45:12.591Z,27.41
2018-08-06T08:46:12.320Z,27.46
2018-08-06T08:47:12.305Z,27.51
2018-08-06T08:48:12.287Z,27.53
2018-08-06T08:49:12.327Z,27.54
2018-08-06T08:50:12.526Z,27.54
2018-08-06T08:51:12.261Z,27.61
2018-08-06T08:52:12.335Z,27.64
2018-08-06T08:53:12.258Z,27.67
2018-08-06T08:54:12.408Z,27.72
2018-08-06T08:55:12.313Z,27.74
2018-08-06T08:56:12.323Z,27.78
2018-08-06T08:57:12.502Z,27.81
2018-08-06T08:58:12.509Z,27.87
2018-08-06T08:59:12.275Z,27.88
2018-08-06T09:00:12.282Z,27.91
2018-08-06T09:01:12.280Z,27.96
2018-08-06T09:02:12.266Z,27.95
2018-08-06T09:03:12.315Z,28.01
2018-08-06T09:04:12.270Z,28.04
2018-08-06T09:05:12.278Z,28.04
2018-08-06T09:06:12.294Z,28.05
2018-08-06T09:07:12.384Z,28.05
2018-08-06T09:08:12.358Z,28.09
2018-08-06T09:09:12.267Z,28.13
2018-08-06T09:10:12.281Z,28.15
2018-08-06T09:11:12.393Z,28.15
2018-08-06T09:12:12.401Z,28.18
2018-08-06T09:13:12.345Z,28.22
2018-08-06T09:14:12.614Z,28.26
2018-08-06T09:15:12.355Z,28.3
2018-08-06T09:16:12.297Z,28.32
2018-08-06T09:17:12.321Z,28.37
2018-08-06T09:18:12.285Z,28.39
2018-08-06T09:19:12.297Z,28.46
2018-08-06T09:20:12.323Z,28.48
2018-08-06T09:21:12.567Z,28.5
2018-08-06T09:22:12.319Z,28.54
2018-08-06T09:23:12.307Z,28.54
2018-08-06T09:24:12.303Z,28.6
2018-08-06T09:25:12.355Z,28.52
2018-08-06T09:26:12.318Z,28.55
2018-08-06T09:27:12.313Z,28.6
2018-08-06T09:28:12.312Z,28.66
2018-08-06T09:29:12.323Z,28.7
2018-08-06T09:30:12.301Z,28.77
2018-08-06T09:31:12.359Z,28.78
2018-08-06T09:32:12.325Z,28.82
2018-08-06T09:33:12.334Z,28.85
2018-08-06T09:34:12.276Z,28.84
2018-08-06T09:35:12.297Z,28.86
2018-08-06T09:36:12.301Z,28.94
2018-08-06T09:37:12.384Z,28.98
2018-08-06T09:38:12.340Z,29.01
2018-08-06T09:39:12.333Z,29.02
2018-08-06T09:40:12.344Z,29.07
2018-08-06T09:41:12.399Z,29.12
2018-08-06T09:42:12.388Z,29.14
2018-08-06T09:43:12.320Z,29.25
2018-08-06T09:44:12.400Z,29.3
2018-08-06T09:45:12.368Z,29.3
2018-08-06T09:46:12.387Z,29.32
2018-08-06T09:47:12.616Z,29.37
2018-08-06T09:48:12.315Z,29.37
2018-08-06T09:49:12.303Z,29.44
2018-08-06T09:50:12.435Z,29.44
2018-08-06T09:51:12.428Z,29.5
2018-08-06T09:52:12.331Z,29.53
2018-08-06T09:53:12.374Z,29.6
2018-08-06T09:54:12.378Z,29.63
2018-08-06T09:55:12.334Z,29.63
2018-08-06T09:56:12.321Z,29.64
2018-08-06T09:57:12.834Z,29.67
2018-08-06T09:58:12.326Z,29.72
2018-08-06T09:59:12.374Z,29.69
2018-08-06T10:00:12.791Z,29.72
2018-08-06T10:01:12.313Z,29.68
2018-08-06T10:02:12.363Z,29.6
2018-08-06T10:03:12.344Z,29.6
2018-08-06T10:04:13.148Z,29.64
2018-08-06T10:05:12.354Z,29.72
2018-08-06T10:06:13.213Z,29.78
2018-08-06T10:07:12.329Z,29.82
2018-08-06T10:08:12.509Z,29.91
2018-08-06T10:09:12.332Z,29.96
2018-08-06T10:10:12.778Z,30.02
2018-08-06T10:11:13.003Z,30.09
2018-08-06T10:12:12.526Z,30.16
2018-08-06T10:13:12.384Z,30.2
2018-08-06T10:14:12.398Z,30.27
2018-08-06T10:15:12.340Z,30.31
2018-08-06T10:16:12.376Z,30.39
2018-08-06T10:17:12.358Z,30.37
2018-08-06T10:18:12.379Z,30.48
2018-08-06T10:19:12.988Z,30.51
2018-08-06T10:20:12.458Z,30.56
2018-08-06T10:21:12.492Z,30.56
2018-08-06T10:22:12.494Z,30.58
2018-08-06T10:23:12.445Z,30.6
2018-08-06T10:24:12.412Z,30.64
2018-08-06T10:25:12.395Z,30.67
2018-08-06T10:26:12.375Z,30.68
2018-08-06T10:27:12.409Z,30.75
2018-08-06T10:28:12.517Z,30.77
2018-08-06T10:29:12.571Z,30.84
2018-08-06T10:30:12.513Z,30.91
2018-08-06T10:31:12.440Z,30.93
2018-08-06T10:32:12.380Z,30.95
2018-08-06T10:33:12.411Z,30.95
2018-08-06T10:34:12.383Z,30.93
2018-08-06T10:35:12.433Z,31.02
2018-08-06T10:36:12.372Z,31.02
2018-08-06T10:37:12.413Z,31.08
2018-08-06T10:38:12.421Z,31.09
2018-08-06T10:39:12.448Z,31.08
2018-08-06T10:40:12.523Z,31.01
2018-08-06T10:41:12.368Z,31.03
2018-08-06T10:42:12.458Z,31.12
2018-08-06T10:43:12.404Z,31.15
2018-08-06T10:44:12.386Z,31.2
2018-08-06T10:45:12.471Z,31.25
2018-08-06T10:46:12.402Z,31.27
2018-08-06T10:47:12.406Z,31.32
2018-08-06T10:48:12.606Z,31.36
2018-08-06T10:49:12.405Z,31.4
2018-08-06T10:50:12.419Z,31.26
2018-08-06T10:51:12.396Z,31.22
2018-08-06T10:52:12.755Z,31.3
2018-08-06T10:53:12.570Z,31.36
2018-08-06T10:54:12.694Z,31.41
2018-08-06T10:55:12.583Z,31.43
2018-08-06T10:56:12.492Z,31.44
2018-08-06T10:57:12.549Z,31.51
2018-08-06T10:58:12.636Z,31.53
2018-08-06T10:59:12.563Z,31.55
2018-08-06T11:00:12.422Z,31.64
2018-08-06T11:01:12.829Z,31.64
2018-08-06T11:02:12.418Z,31.7
2018-08-06T11:03:12.520Z,31.7
2018-08-06T11:04:12.548Z,31.8
2018-08-06T11:05:12.970Z,31.82
2018-08-06T11:06:12.483Z,31.88
2018-08-06T11:07:12.521Z,31.91
2018-08-06T11:08:12.562Z,31.98
2018-08-06T11:09:12.484Z,32.01
2018-08-06T11:10:12.803Z,32.05
2018-08-06T11:11:12.466Z,32.05
2018-08-06T11:12:12.594Z,32.11
2018-08-06T11:13:12.495Z,32.18
2018-08-06T11:14:12.851Z,32.19
2018-08-06T11:15:12.485Z,32.2
2018-08-06T11:16:12.512Z,32.26
2018-08-06T11:17:12.949Z,32.32
2018-08-06T11:18:12.468Z,32.35
2018-08-06T11:19:12.650Z,32.4
2018-08-06T11:20:12.625Z,32.43
2018-08-06T11:21:12.576Z,32.39
2018-08-06T11:22:12.503Z,32.44
2018-08-06T11:23:12.479Z,32.49
2018-08-06T11:24:12.489Z,32.5
2018-08-06T11:25:12.502Z,32.53
2018-08-06T11:26:12.520Z,32.53
2018-08-06T11:27:12.514Z,32.54
2018-08-06T11:28:12.752Z,32.57
2018-08-06T11:29:12.548Z,32.61
2018-08-06T11:30:12.505Z,32.63
2018-08-06T11:31:12.481Z,32.66
2018-08-06T11:32:12.514Z,32.69
2018-08-06T11:33:12.472Z,32.7
2018-08-06T11:34:12.464Z,32.77
2018-08-06T11:35:12.447Z,32.75
2018-08-06T11:36:12.593Z,32.8
2018-08-06T11:37:12.533Z,32.84
2018-08-06T11:38:12.469Z,32.87
2018-08-06T11:39:12.485Z,32.87
2018-08-06T11:40:12.478Z,32.88
2018-08-06T11:41:12.453Z,32.91
2018-08-06T11:42:12.474Z,32.95
2018-08-06T11:43:12.548Z,32.95
2018-08-06T11:44:12.486Z,32.94
2018-08-06T11:45:12.479Z,32.98
2018-08-06T11:46:12.512Z,32.99
2018-08-06T11:47:12.491Z,33.05
2018-08-06T11:48:12.502Z,33.14
2018-08-06T11:49:12.552Z,33.14
2018-08-06T11:50:12.662Z,33.16
2018-08-06T11:51:12.518Z,33.16
2018-08-06T11:52:12.622Z,33.15
2018-08-06T11:53:12.506Z,33.12
2018-08-06T11:54:12.528Z,33.21
2018-08-06T11:55:13.643Z,33.22
2018-08-06T11:56:12.504Z,33.22
2018-08-06T11:57:12.488Z,33.28
2018-08-06T11:58:12.841Z,33.29
2018-08-06T11:59:12.528Z,33.33
2018-08-06T12:00:12.469Z,33.06
2018-08-06T12:01:12.492Z,33.16
2018-08-06T12:02:12.509Z,33.05
2018-08-06T12:03:12.544Z,33.08
2018-08-06T12:04:12.519Z,33.14
2018-08-06T12:05:12.492Z,33.15
2018-08-06T12:06:12.498Z,33.28
2018-08-06T12:07:12.568Z,33.3
2018-08-06T12:08:12.529Z,33.32
2018-08-06T12:09:12.582Z,33.12
2018-08-06T12:10:12.516Z,33.15
2018-08-06T12:11:12.522Z,33.28
2018-08-06T12:12:12.533Z,33.36
2018-08-06T12:13:12.526Z,33.43
2018-08-06T12:14:12.583Z,33.56
2018-08-06T12:15:13.074Z,33.59
2018-08-06T12:16:12.533Z,33.6
2018-08-06T12:17:12.564Z,33.68
2018-08-06T12:18:12.653Z,33.67
2018-08-06T12:19:12.614Z,33.73
2018-08-06T12:20:12.569Z,33.74
2018-08-06T12:21:12.601Z,33.78
2018-08-06T12:22:12.572Z,33.84
2018-08-06T12:23:12.559Z,33.81
2018-08-06T12:24:12.579Z,33.77
2018-08-06T12:25:12.829Z,33.48
2018-08-06T12:26:12.954Z,33.57
2018-08-06T12:27:12.613Z,33.66
2018-08-06T12:28:12.560Z,33.7
2018-08-06T12:29:12.848Z,33.76
2018-08-06T12:30:12.853Z,33.81
2018-08-06T12:31:13.117Z,33.88
2018-08-06T12:32:12.544Z,33.88
2018-08-06T12:33:12.719Z,33.9
2018-08-06T12:34:12.538Z,33.9
2018-08-06T12:35:12.885Z,33.94
2018-08-06T12:36:12.620Z,33.97
2018-08-06T12:37:12.536Z,34.01
2018-08-06T12:38:12.849Z,34.08
2018-08-06T12:39:12.583Z,34.14
2018-08-06T12:40:12.676Z,33.93
2018-08-06T12:41:12.543Z,33.78
2018-08-06T12:42:12.671Z,33.88
2018-08-06T12:43:12.679Z,33.87
2018-08-06T12:44:12.556Z,33.93
2018-08-06T12:45:12.564Z,33.97
2018-08-06T12:46:12.979Z,33.98
2018-08-06T12:47:12.635Z,33.98
2018-08-06T12:48:12.651Z,34.04
2018-08-06T12:49:12.559Z,33.81
2018-08-06T12:50:12.661Z,33.91
2018-08-06T12:51:12.923Z,33.95
2018-08-06T12:52:12.721Z,33.94
2018-08-06T12:53:12.578Z,33.91
2018-08-06T12:54:12.581Z,33.95
2018-08-06T12:55:12.631Z,34.04